Time;durP1;ratioP1;P1;durP2;ratioP2;P2;SDS_P1;SDS_P2;PMS_P1;PMS_P2;Temp;Humidity;BMP_temperature;BMP_pressure;BME280_temperature;BME280_humidity;BME280_pressure;Samples;Min_cycle;Max_cycle;Signal;HPM_P1;HPM_P2
2023/05/10 00:00:25;;;;;;;20.80;11.20;;;;;;;;;;111027;1248;23319;-79
2023/05/10 00:03:08;;;;;;;20.30;12.50;;;;;;;;;;109283;1251;22113;-79
2023/05/10 00:05:35;;;;;;;22.30;13.10;;;;;;;;;;110746;1249;22897;-77
2023/05/10 00:08:01;;;;;;;22.40;15.20;;;;;;;;;;110872;1251;22328;-77
2023/05/10 00:10:27;;;;;;;18.50;11.60;;;;;;;;;;110865;1250;22364;-78
2023/05/10 00:12:53;;;;;;;22.70;11.10;;;;;;;;;;110870;1249;23135;-79
2023/05/10 00:15:20;;;;;;;18.10;10.90;;;;;;;;;;110837;1250;22337;-79
2023/05/10 00:17:47;;;;;;;18.70;10.80;;;;;;;;;;108624;1251;22630;-78
2023/05/10 00:20:13;;;;;;;19.80;11.20;;;;;;;;;;107709;1251;22567;-79
2023/05/10 00:22:39;;;;;;;18.00;10.30;;;;;;;;;;107653;1251;24094;-79
2023/05/10 00:25:06;;;;;;;19.80;11.50;;;;;;;;;;107623;1251;22578;-77
2023/05/10 00:27:32;;;;;;;18.80;12.10;;;;;;;;;;109644;1250;22268;-77
2023/05/10 00:29:59;;;;;;;18.80;11.90;;;;;;;;;;110969;1247;22260;-77
2023/05/10 00:32:25;;;;;;;18.70;12.60;;;;;;;;;;110981;1248;22932;-79
2023/05/10 00:34:51;;;;;;;17.40;11.30;;;;;;;;;;111003;1247;22987;-77
2023/05/10 00:37:18;;;;;;;22.50;14.60;;;;;;;;;;111036;1247;22406;-80
2023/05/10 00:39:44;;;;;;;19.90;11.60;;;;;;;;;;110948;1247;22362;-79
2023/05/10 00:42:10;;;;;;;16.00;9.80;;;;;;;;;;110983;1247;22257;-77
2023/05/10 00:44:37;;;;;;;16.90;9.80;;;;;;;;;;111022;1248;22541;-77
2023/05/10 00:47:03;;;;;;;21.10;15.40;;;;;;;;;;110989;1248;22328;-78
2023/05/10 00:49:29;;;;;;;16.90;10.80;;;;;;;;;;110841;1247;22238;-77
2023/05/10 00:51:56;;;;;;;19.70;10.70;;;;;;;;;;111016;1247;22885;-79
2023/05/10 00:54:22;;;;;;;18.90;10.70;;;;;;;;;;111049;1247;22275;-79
2023/05/10 00:56:49;;;;;;;19.60;9.90;;;;;;;;;;109882;1247;25538;-79
2023/05/10 00:59:16;;;;;;;16.60;10.20;;;;;;;;;;107614;1250;22522;-80
2023/05/10 01:01:43;;;;;;;16.20;11.90;;;;;;;;;;107662;1248;26337;-77
2023/05/10 01:04:10;;;;;;;21.80;12.40;;;;;;;;;;107846;1253;25407;-76
2023/05/10 01:06:37;;;;;;;23.10;15.70;;;;;;;;;;107884;1254;22934;-76
2023/05/10 01:09:03;;;;;;;19.40;12.30;;;;;;;;;;107882;1247;22717;-78
2023/05/10 01:11:29;;;;;;;20.90;13.20;;;;;;;;;;107875;1248;22531;-76
2023/05/10 01:13:56;;;;;;;18.40;11.60;;;;;;;;;;107884;1248;22543;-77
2023/05/10 01:16:23;;;;;;;19.70;10.70;;;;;;;;;;107868;1248;23905;-78
2023/05/10 01:18:50;;;;;;;22.20;11.30;;;;;;;;;;107919;1253;22552;-76
2023/05/10 01:21:33;;;;;;;15.10;9.10;;;;;;;;;;107934;1247;25380;-76
2023/05/10 01:24:18;;;;;;;20.00;11.70;;;;;;;;;;107713;1248;22533;-76
2023/05/10 01:26:49;;;;;;;17.50;11.10;;;;;;;;;;107933;1247;23734;-76
2023/05/10 01:29:29;;;;;;;15.70;8.70;;;;;;;;;;107867;1248;22540;-76
2023/05/10 01:31:58;;;;;;;15.10;10.30;;;;;;;;;;107809;1248;22541;-77
2023/05/10 01:34:25;;;;;;;21.90;9.60;;;;;;;;;;107872;1252;25201;-79
2023/05/10 01:36:55;;;;;;;17.10;9.60;;;;;;;;;;107838;1247;22632;-78
2023/05/10 01:39:24;;;;;;;16.00;9.10;;;;;;;;;;110521;1247;23070;-77
2023/05/10 01:41:53;;;;;;;13.70;8.60;;;;;;;;;;110852;1247;22464;-79
2023/05/10 01:44:29;;;;;;;20.10;8.50;;;;;;;;;;111002;1247;22891;-79
2023/05/10 01:46:57;;;;;;;22.60;12.10;;;;;;;;;;111008;1247;22502;-78
2023/05/10 01:49:25;;;;;;;17.40;11.00;;;;;;;;;;111003;1248;22363;-78
2023/05/10 01:51:54;;;;;;;18.30;10.10;;;;;;;;;;110993;1247;22243;-77
2023/05/10 01:54:21;;;;;;;17.30;9.40;;;;;;;;;;109852;1248;23788;-77
2023/05/10 01:56:48;;;;;;;17.30;11.10;;;;;;;;;;107920;1248;22689;-79
2023/05/10 01:59:15;;;;;;;16.50;10.20;;;;;;;;;;107582;1247;163563;-78
2023/05/10 02:01:41;;;;;;;17.10;9.80;;;;;;;;;;107833;1251;22867;-77
2023/05/10 02:04:08;;;;;;;17.30;9.50;;;;;;;;;;107648;1251;24301;-77
2023/05/10 02:06:35;;;;;;;17.00;10.70;;;;;;;;;;107715;1251;25214;-79
2023/05/10 02:09:01;;;;;;;17.80;10.40;;;;;;;;;;107774;1251;24218;-80
2023/05/10 02:11:28;;;;;;;44.80;11.40;;;;;;;;;;107647;1251;24278;-80
2023/05/10 02:13:54;;;;;;;17.50;10.30;;;;;;;;;;107647;1257;25401;-76
2023/05/10 02:16:21;;;;;;;15.50;9.10;;;;;;;;;;107707;1251;22525;-77
2023/05/10 02:18:47;;;;;;;17.30;10.20;;;;;;;;;;107677;1249;22514;-79
2023/05/10 02:21:14;;;;;;;16.90;9.50;;;;;;;;;;107669;1251;25374;-79
2023/05/10 02:23:40;;;;;;;13.30;7.90;;;;;;;;;;107632;1250;22532;-76
2023/05/10 02:26:06;;;;;;;14.60;8.40;;;;;;;;;;107673;1253;27446;-79
2023/05/10 02:28:33;;;;;;;19.30;10.60;;;;;;;;;;107708;1248;22515;-77
2023/05/10 02:30:59;;;;;;;20.50;12.80;;;;;;;;;;107823;1248;22632;-79
2023/05/10 02:33:26;;;;;;;23.20;15.70;;;;;;;;;;107707;1248;22520;-78
2023/05/10 02:35:52;;;;;;;24.60;15.70;;;;;;;;;;107707;1247;22535;-76
2023/05/10 02:38:18;;;;;;;20.50;13.00;;;;;;;;;;107853;1247;24183;-76
2023/05/10 02:40:45;;;;;;;16.20;10.50;;;;;;;;;;107683;1248;24186;-76
2023/05/10 02:43:12;;;;;;;13.70;7.90;;;;;;;;;;107702;1247;22635;-76
2023/05/10 02:45:38;;;;;;;19.50;9.90;;;;;;;;;;107863;1253;22631;-77
2023/05/10 02:48:05;;;;;;;21.30;10.40;;;;;;;;;;107830;1253;22529;-79
2023/05/10 02:50:32;;;;;;;14.20;9.10;;;;;;;;;;107707;1248;24254;-77
2023/05/10 02:53:03;;;;;;;19.00;11.90;;;;;;;;;;108601;1247;22235;-77
2023/05/10 02:55:32;;;;;;;21.70;13.10;;;;;;;;;;110800;1248;22325;-77
2023/05/10 02:57:59;;;;;;;20.20;13.70;;;;;;;;;;110836;1251;22319;-79
2023/05/10 03:00:26;;;;;;;21.90;14.10;;;;;;;;;;108238;1248;22514;-77
2023/05/10 03:02:52;;;;;;;16.40;9.40;;;;;;;;;;107877;1247;25327;-78
2023/05/10 03:05:19;;;;;;;13.50;8.90;;;;;;;;;;107857;1252;22517;-77
2023/05/10 03:07:45;;;;;;;15.50;9.80;;;;;;;;;;107866;1247;25248;-78
2023/05/10 03:10:30;;;;;;;22.30;10.30;;;;;;;;;;107791;1247;22518;-76
2023/05/10 03:13:15;;;;;;;16.90;9.20;;;;;;;;;;107825;1252;22529;-79
2023/05/10 03:15:51;;;;;;;22.10;10.60;;;;;;;;;;107858;1248;22565;-77
2023/05/10 03:18:36;;;;;;;20.50;10.50;;;;;;;;;;107845;1251;24339;-79
2023/05/10 03:21:05;;;;;;;15.20;9.00;;;;;;;;;;107685;1250;22532;-77
2023/05/10 03:23:40;;;;;;;19.70;10.10;;;;;;;;;;107672;1254;22535;-78
2023/05/10 03:26:07;;;;;;;18.20;10.40;;;;;;;;;;107686;1251;25458;-76
2023/05/10 03:28:33;;;;;;;18.80;10.70;;;;;;;;;;108259;1247;22231;-77
2023/05/10 03:31:00;;;;;;;18.50;11.70;;;;;;;;;;110045;1248;22570;-77
2023/05/10 03:33:26;;;;;;;16.80;10.50;;;;;;;;;;107668;1248;22572;-76
2023/05/10 03:35:52;;;;;;;18.40;10.00;;;;;;;;;;107843;1248;23313;-79
2023/05/10 03:38:19;;;;;;;20.40;12.80;;;;;;;;;;108090;1247;23287;-77
2023/05/10 03:40:45;;;;;;;15.70;12.20;;;;;;;;;;110121;1247;24244;-79
2023/05/10 03:43:11;;;;;;;16.00;10.10;;;;;;;;;;107833;1253;26484;-76
2023/05/10 03:45:38;;;;;;;18.50;10.30;;;;;;;;;;107841;1248;22542;-76
2023/05/10 03:48:04;;;;;;;21.50;9.60;;;;;;;;;;107846;1247;22569;-76
2023/05/10 03:50:31;;;;;;;16.00;8.60;;;;;;;;;;107868;1247;22545;-77
2023/05/10 03:52:57;;;;;;;16.70;9.70;;;;;;;;;;107905;1248;22519;-79
2023/05/10 03:55:23;;;;;;;17.10;9.80;;;;;;;;;;107818;1253;24877;-79
2023/05/10 03:57:50;;;;;;;20.70;11.20;;;;;;;;;;107757;1251;23704;-80
2023/05/10 04:00:17;;;;;;;14.40;10.00;;;;;;;;;;107678;1251;22576;-76
2023/05/10 04:02:43;;;;;;;17.40;12.10;;;;;;;;;;107792;1253;25340;-77
2023/05/10 04:05:09;;;;;;;18.60;10.70;;;;;;;;;;107866;1252;22635;-79
2023/05/10 04:07:36;;;;;;;22.70;14.90;;;;;;;;;;107905;1247;24198;-76
2023/05/10 04:10:02;;;;;;;17.60;11.50;;;;;;;;;;107872;1248;25249;-79
2023/05/10 04:12:29;;;;;;;22.80;15.00;;;;;;;;;;107875;1248;22519;-79
2023/05/10 04:14:55;;;;;;;20.90;14.30;;;;;;;;;;107869;1248;24240;-76
2023/05/10 04:17:21;;;;;;;18.30;11.60;;;;;;;;;;108020;1247;23755;-76
2023/05/10 04:19:48;;;;;;;17.10;10.30;;;;;;;;;;107741;1254;25009;-76
2023/05/10 04:22:14;;;;;;;16.40;8.60;;;;;;;;;;107942;1248;26635;-79
2023/05/10 04:24:41;;;;;;;13.30;9.70;;;;;;;;;;107827;1250;22936;-78
2023/05/10 04:27:07;;;;;;;12.40;8.80;;;;;;;;;;107843;1251;25392;-76
2023/05/10 04:29:33;;;;;;;11.60;7.90;;;;;;;;;;107867;1248;22535;-77
2023/05/10 04:31:59;;;;;;;15.70;9.00;;;;;;;;;;107889;1248;22562;-80
2023/05/10 04:34:26;;;;;;;13.10;8.60;;;;;;;;;;107880;1247;22527;-79
2023/05/10 04:36:52;;;;;;;18.40;9.00;;;;;;;;;;107847;1247;23700;-79
2023/05/10 04:39:19;;;;;;;16.30;9.00;;;;;;;;;;107920;1248;22525;-79
2023/05/10 04:41:45;;;;;;;13.70;9.00;;;;;;;;;;107904;1248;24240;-77
2023/05/10 04:44:11;;;;;;;14.20;9.70;;;;;;;;;;107904;1247;22523;-79
2023/05/10 04:46:38;;;;;;;15.50;10.30;;;;;;;;;;107879;1247;22627;-76
2023/05/10 04:49:04;;;;;;;17.50;8.90;;;;;;;;;;107858;1248;22515;-76
2023/05/10 04:51:31;;;;;;;26.30;9.50;;;;;;;;;;107932;1247;22530;-79
2023/05/10 04:53:58;;;;;;;15.60;9.40;;;;;;;;;;107908;1252;22998;-78
2023/05/10 04:56:24;;;;;;;16.10;9.40;;;;;;;;;;107888;1248;22547;-79
2023/05/10 04:58:51;;;;;;;22.90;9.60;;;;;;;;;;108217;1247;22744;-79
2023/05/10 05:01:17;;;;;;;15.50;9.70;;;;;;;;;;107746;1250;22564;-79
2023/05/10 05:03:43;;;;;;;17.20;9.60;;;;;;;;;;107903;1248;22629;-78
2023/05/10 05:06:10;;;;;;;15.50;9.40;;;;;;;;;;107881;1247;22581;-79
2023/05/10 05:08:36;;;;;;;17.40;11.50;;;;;;;;;;107898;1253;25210;-79
2023/05/10 05:11:02;;;;;;;30.60;27.20;;;;;;;;;;107886;1247;22515;-77
2023/05/10 05:13:29;;;;;;;15.90;12.00;;;;;;;;;;107893;1251;22626;-77
2023/05/10 05:15:55;;;;;;;14.00;10.20;;;;;;;;;;107742;1251;24197;-77
2023/05/10 05:18:21;;;;;;;16.00;9.40;;;;;;;;;;107670;1251;22529;-77
2023/05/10 05:20:48;;;;;;;17.60;9.20;;;;;;;;;;108003;1250;22556;-77
2023/05/10 05:23:14;;;;;;;12.00;8.20;;;;;;;;;;107775;1253;22568;-77
2023/05/10 05:25:41;;;;;;;11.10;8.30;;;;;;;;;;107918;1247;25489;-79
2023/05/10 05:28:07;;;;;;;15.30;9.40;;;;;;;;;;107860;1247;23298;-77
2023/05/10 05:30:34;;;;;;;16.30;9.40;;;;;;;;;;107883;1252;22522;-80
2023/05/10 05:33:00;;;;;;;13.60;7.90;;;;;;;;;;107782;1250;24751;-80
2023/05/10 05:35:26;;;;;;;13.00;8.50;;;;;;;;;;107714;1249;22953;-79
2023/05/10 05:37:53;;;;;;;11.90;7.70;;;;;;;;;;107990;1247;25502;-79
2023/05/10 05:40:20;;;;;;;15.00;8.50;;;;;;;;;;107804;1247;22649;-77
2023/05/10 05:42:46;;;;;;;13.10;8.20;;;;;;;;;;109268;1248;25493;-77
2023/05/10 05:45:13;;;;;;;18.70;8.90;;;;;;;;;;108072;1248;26494;-80
2023/05/10 05:47:39;;;;;;;18.90;8.60;;;;;;;;;;108045;1247;23004;-80
2023/05/10 05:50:06;;;;;;;20.30;9.10;;;;;;;;;;107802;1253;22554;-77
2023/05/10 05:52:32;;;;;;;15.20;8.00;;;;;;;;;;108778;1247;22430;-80
2023/05/10 05:54:59;;;;;;;10.50;6.40;;;;;;;;;;108136;1247;25331;-80
2023/05/10 05:57:26;;;;;;;13.20;7.70;;;;;;;;;;108029;1253;25390;-77
2023/05/10 05:59:52;;;;;;;13.40;8.60;;;;;;;;;;108176;1247;25290;-77
2023/05/10 06:02:19;;;;;;;14.60;8.30;;;;;;;;;;108306;1252;22525;-77
2023/05/10 06:04:46;;;;;;;12.70;6.80;;;;;;;;;;108357;1247;22546;-80
2023/05/10 06:07:12;;;;;;;14.20;8.20;;;;;;;;;;108232;1250;25839;-80
2023/05/10 06:09:38;;;;;;;12.00;6.80;;;;;;;;;;108157;1250;25868;-78
2023/05/10 06:12:05;;;;;;;10.20;6.80;;;;;;;;;;108042;1248;23601;-77
2023/05/10 06:14:31;;;;;;;19.10;7.90;;;;;;;;;;108084;1247;25216;-80
2023/05/10 06:16:59;;;;;;;15.80;6.20;;;;;;;;;;107889;1248;24199;-79
2023/05/10 06:19:26;;;;;;;12.00;7.50;;;;;;;;;;108345;1247;25254;-80
2023/05/10 06:21:52;;;;;;;14.40;7.60;;;;;;;;;;108326;1250;22518;-80
2023/05/10 06:24:18;;;;;;;10.80;7.20;;;;;;;;;;108154;1247;22597;-77
2023/05/10 06:26:45;;;;;;;20.50;8.40;;;;;;;;;;108037;1247;25217;-77
2023/05/10 06:29:11;;;;;;;10.20;6.20;;;;;;;;;;108284;1247;22516;-77
2023/05/10 06:31:37;;;;;;;9.40;6.10;;;;;;;;;;108247;1247;22520;-78
2023/05/10 06:34:04;;;;;;;9.20;5.30;;;;;;;;;;108099;1251;23227;-80
2023/05/10 06:36:30;;;;;;;16.80;6.30;;;;;;;;;;108276;1247;22521;-77
2023/05/10 06:38:56;;;;;;;14.30;6.70;;;;;;;;;;108856;1248;22396;-80
2023/05/10 06:41:23;;;;;;;15.80;6.70;;;;;;;;;;107970;1250;22543;-77
2023/05/10 06:43:49;;;;;;;16.10;6.10;;;;;;;;;;108815;1248;22302;-77
2023/05/10 06:46:16;;;;;;;12.50;6.00;;;;;;;;;;110980;1247;22367;-77
2023/05/10 06:48:42;;;;;;;8.60;5.10;;;;;;;;;;110919;1247;23190;-75
2023/05/10 06:51:09;;;;;;;7.10;4.20;;;;;;;;;;110860;1247;22250;-78
2023/05/10 06:53:35;;;;;;;7.60;4.20;;;;;;;;;;110913;1247;22962;-76
2023/05/10 06:56:02;;;;;;;7.70;4.90;;;;;;;;;;110915;1247;22287;-76
2023/05/10 06:58:29;;;;;;;6.80;3.70;;;;;;;;;;110885;1249;23488;-76
2023/05/10 07:01:01;;;;;;;7.90;4.30;;;;;;;;;;110960;1247;22390;-80
2023/05/10 07:03:27;;;;;;;6.40;4.10;;;;;;;;;;110767;1247;22503;-76
2023/05/10 07:05:54;;;;;;;6.40;3.80;;;;;;;;;;108989;1247;25248;-78
2023/05/10 07:08:21;;;;;;;4.80;3.00;;;;;;;;;;107982;1252;22545;-75
2023/05/10 07:10:47;;;;;;;5.70;3.20;;;;;;;;;;107999;1247;22546;-75
2023/05/10 07:13:13;;;;;;;5.60;3.00;;;;;;;;;;107913;1247;22964;-78
2023/05/10 07:15:40;;;;;;;5.40;3.00;;;;;;;;;;108100;1247;22558;-79
2023/05/10 07:18:06;;;;;;;4.20;3.10;;;;;;;;;;108743;1247;22521;-75
2023/05/10 07:20:33;;;;;;;3.30;2.20;;;;;;;;;;108319;1247;23623;-77
2023/05/10 07:22:59;;;;;;;4.70;2.40;;;;;;;;;;108213;1247;22529;-76
2023/05/10 07:25:26;;;;;;;8.20;2.70;;;;;;;;;;108298;1247;22547;-75
2023/05/10 07:27:52;;;;;;;4.60;3.30;;;;;;;;;;108050;1248;23352;-75
2023/05/10 07:30:18;;;;;;;3.50;2.00;;;;;;;;;;108087;1247;22523;-76
2023/05/10 07:32:44;;;;;;;2.90;2.20;;;;;;;;;;108114;1250;22529;-78
2023/05/10 07:35:11;;;;;;;2.90;1.80;;;;;;;;;;108134;1248;22548;-78
2023/05/10 07:37:37;;;;;;;2.80;1.80;;;;;;;;;;108119;1247;22543;-77
2023/05/10 07:40:04;;;;;;;3.10;2.10;;;;;;;;;;107778;1252;22517;-79
2023/05/10 07:42:30;;;;;;;5.20;1.70;;;;;;;;;;107891;1248;22556;-79
2023/05/10 07:44:57;;;;;;;4.30;2.10;;;;;;;;;;107946;1248;22534;-79
2023/05/10 07:47:24;;;;;;;5.20;2.30;;;;;;;;;;108025;1247;22544;-77
2023/05/10 07:49:50;;;;;;;7.40;3.40;;;;;;;;;;107834;1247;58492;-79
2023/05/10 07:52:16;;;;;;;6.40;2.80;;;;;;;;;;107807;1247;56261;-77
2023/05/10 07:54:43;;;;;;;3.60;2.00;;;;;;;;;;107716;1247;22531;-81
2023/05/10 07:57:09;;;;;;;4.80;2.50;;;;;;;;;;107600;1252;59115;-79
2023/05/10 07:59:36;;;;;;;2.10;1.60;;;;;;;;;;107392;1247;61073;-77
2023/05/10 08:02:02;;;;;;;2.50;1.50;;;;;;;;;;107905;1247;23037;-77
2023/05/10 08:04:29;;;;;;;3.00;1.80;;;;;;;;;;107824;1247;22527;-77
2023/05/10 08:06:55;;;;;;;3.20;2.10;;;;;;;;;;108105;1247;24313;-79
2023/05/10 08:09:23;;;;;;;10.60;2.20;;;;;;;;;;107843;1248;24252;-76
2023/05/10 08:11:50;;;;;;;3.60;2.20;;;;;;;;;;107720;1248;25377;-79
2023/05/10 08:14:17;;;;;;;2.50;1.40;;;;;;;;;;107937;1252;22524;-77
2023/05/10 08:16:43;;;;;;;4.70;1.60;;;;;;;;;;107934;1247;44461;-79
2023/05/10 08:19:09;;;;;;;3.10;1.70;;;;;;;;;;107959;1252;22534;-79
2023/05/10 08:21:36;;;;;;;7.10;2.70;;;;;;;;;;107986;1247;22631;-79
2023/05/10 08:24:02;;;;;;;4.70;1.60;;;;;;;;;;107952;1247;22514;-79
2023/05/10 08:26:28;;;;;;;3.80;2.30;;;;;;;;;;108003;1247;22555;-76
2023/05/10 08:28:55;;;;;;;5.20;1.90;;;;;;;;;;107887;1247;59744;-76
2023/05/10 08:31:21;;;;;;;6.90;2.20;;;;;;;;;;107886;1250;22581;-79
2023/05/10 08:33:47;;;;;;;8.40;2.30;;;;;;;;;;107785;1250;22909;-77
2023/05/10 08:36:19;;;;;;;4.60;2.00;;;;;;;;;;107631;1251;55187;-79
2023/05/10 08:38:45;;;;;;;2.80;1.80;;;;;;;;;;107769;1247;22610;-80
2023/05/10 08:41:12;;;;;;;10.40;2.30;;;;;;;;;;107532;1249;58878;-80
2023/05/10 08:43:38;;;;;;;108.60;13.20;;;;;;;;;;107288;1250;62316;-79
2023/05/10 08:46:05;;;;;;;4.20;1.60;;;;;;;;;;107055;1251;60797;-79
2023/05/10 08:48:31;;;;;;;3.10;1.80;;;;;;;;;;107646;1248;57737;-81
2023/05/10 08:50:58;;;;;;;4.00;1.80;;;;;;;;;;107182;1252;60958;-80
2023/05/10 08:53:26;;;;;;;2.00;1.80;;;;;;;;;;106968;1253;61342;-82
2023/05/10 08:55:53;;;;;;;7.80;2.60;;;;;;;;;;107107;1250;61300;-77
2023/05/10 08:58:19;;;;;;;7.20;1.60;;;;;;;;;;106815;1249;61339;-80
2023/05/10 09:00:46;;;;;;;5.10;2.20;;;;;;;;;;106916;1253;61612;-80
2023/05/10 09:03:12;;;;;;;2.80;1.50;;;;;;;;;;106837;1251;61329;-78
2023/05/10 09:05:38;;;;;;;5.60;2.80;;;;;;;;;;106894;1253;61347;-77
2023/05/10 09:08:05;;;;;;;2.20;1.60;;;;;;;;;;107002;1247;62750;-79
2023/05/10 09:10:32;;;;;;;2.70;1.60;;;;;;;;;;106963;1248;61097;-80
2023/05/10 09:12:58;;;;;;;2.10;1.40;;;;;;;;;;106932;1247;61353;-77
2023/05/10 09:15:24;;;;;;;2.00;1.50;;;;;;;;;;106941;1251;61342;-78
2023/05/10 09:17:51;;;;;;;2.90;1.20;;;;;;;;;;107012;1247;61266;-80
2023/05/10 09:20:17;;;;;;;2.20;1.40;;;;;;;;;;107069;1247;61272;-80
2023/05/10 09:22:43;;;;;;;2.50;1.90;;;;;;;;;;107114;1248;61109;-78
2023/05/10 09:25:11;;;;;;;2.90;1.80;;;;;;;;;;107226;1247;61225;-80
2023/05/10 09:27:37;;;;;;;3.70;1.50;;;;;;;;;;107030;1247;61102;-77
2023/05/10 09:30:05;;;;;;;2.60;2.20;;;;;;;;;;106995;1252;61259;-78
2023/05/10 09:32:41;;;;;;;3.20;2.30;;;;;;;;;;107067;1248;61342;-78
2023/05/10 09:35:07;;;;;;;4.40;1.50;;;;;;;;;;107225;1247;60681;-81
2023/05/10 09:37:34;;;;;;;3.00;1.40;;;;;;;;;;110077;1247;59060;-78
2023/05/10 09:40:00;;;;;;;5.80;1.70;;;;;;;;;;109687;1248;59000;-78
2023/05/10 09:42:26;;;;;;;3.90;1.70;;;;;;;;;;108302;1248;61104;-78
2023/05/10 09:44:53;;;;;;;2.10;1.80;;;;;;;;;;108111;1248;61226;-81
2023/05/10 09:47:19;;;;;;;2.60;1.60;;;;;;;;;;107738;1252;61343;-80
2023/05/10 09:49:50;;;;;;;5.50;2.00;;;;;;;;;;107074;1247;61253;-77
2023/05/10 09:52:16;;;;;;;4.00;1.80;;;;;;;;;;107218;1248;61340;-80
2023/05/10 09:54:45;;;;;;;2.60;1.70;;;;;;;;;;107426;1247;61222;-77
2023/05/10 09:57:18;;;;;;;5.80;1.80;;;;;;;;;;107326;1254;61093;-81
2023/05/10 09:59:45;;;;;;;2.90;1.60;;;;;;;;;;107341;1248;61186;-78
2023/05/10 10:02:11;;;;;;;5.90;1.50;;;;;;;;;;107091;1252;61303;-81
2023/05/10 10:04:41;;;;;;;7.20;2.70;;;;;;;;;;107165;1248;61298;-80
2023/05/10 10:07:07;;;;;;;5.90;2.50;;;;;;;;;;107406;1247;61234;-78
2023/05/10 10:09:34;;;;;;;2.70;1.80;;;;;;;;;;107372;1251;61333;-81
2023/05/10 10:12:01;;;;;;;2.60;1.30;;;;;;;;;;107434;1248;61090;-78
2023/05/10 10:14:28;;;;;;;3.00;1.80;;;;;;;;;;107275;1253;61153;-80
2023/05/10 10:16:55;;;;;;;2.00;1.40;;;;;;;;;;106977;1252;61327;-78
2023/05/10 10:19:21;;;;;;;2.90;1.60;;;;;;;;;;106931;1247;61222;-77
2023/05/10 10:21:48;;;;;;;3.40;1.60;;;;;;;;;;107084;1253;61128;-77
2023/05/10 10:24:15;;;;;;;3.40;1.80;;;;;;;;;;107159;1250;60791;-77
2023/05/10 10:26:42;;;;;;;6.80;1.70;;;;;;;;;;107065;1253;61272;-80
2023/05/10 10:29:18;;;;;;;4.70;2.10;;;;;;;;;;106966;1252;61356;-80
2023/05/10 10:31:46;;;;;;;2.70;1.90;;;;;;;;;;106871;1253;61266;-77
2023/05/10 10:34:18;;;;;;;2.40;1.30;;;;;;;;;;106925;1251;61148;-80
2023/05/10 10:36:45;;;;;;;3.70;1.90;;;;;;;;;;106957;1253;59903;-79
2023/05/10 10:39:12;;;;;;;3.10;2.40;;;;;;;;;;106902;1251;61265;-77
2023/05/10 10:41:43;;;;;;;5.30;1.70;;;;;;;;;;106876;1252;61327;-80
2023/05/10 10:44:22;;;;;;;3.70;2.20;;;;;;;;;;106875;1253;61228;-77
2023/05/10 10:47:08;;;;;;;4.10;2.20;;;;;;;;;;106990;1252;61819;-80
2023/05/10 10:49:38;;;;;;;2.90;1.60;;;;;;;;;;106854;1250;61580;-77
2023/05/10 10:52:23;;;;;;;4.90;2.20;;;;;;;;;;106974;1247;61215;-80
2023/05/10 10:54:51;;;;;;;4.50;2.30;;;;;;;;;;106838;1253;61302;-77
2023/05/10 10:57:18;;;;;;;7.10;3.30;;;;;;;;;;106901;1253;61148;-77
2023/05/10 10:59:45;;;;;;;4.40;1.90;;;;;;;;;;106895;1249;61262;-79
2023/05/10 11:02:30;;;;;;;2.10;1.50;;;;;;;;;;106928;1251;61212;-79
2023/05/10 11:04:56;;;;;;;2.90;2.10;;;;;;;;;;106837;1248;61116;-79
2023/05/10 11:07:23;;;;;;;4.40;2.60;;;;;;;;;;106830;1251;61240;-79
2023/05/10 11:09:49;;;;;;;3.80;1.90;;;;;;;;;;106928;1248;61256;-79
2023/05/10 11:12:15;;;;;;;5.00;2.70;;;;;;;;;;106955;1247;61311;-78
2023/05/10 11:14:42;;;;;;;7.40;2.60;;;;;;;;;;106992;1248;61316;-79
2023/05/10 11:17:24;;;;;;;14.60;2.90;;;;;;;;;;107125;1248;62050;-77
2023/05/10 11:20:07;;;;;;;6.80;2.20;;;;;;;;;;107046;1250;61390;-79
2023/05/10 11:22:48;;;;;;;3.30;1.90;;;;;;;;;;107437;1248;61209;-80
2023/05/10 11:25:15;;;;;;;3.20;2.60;;;;;;;;;;107223;1253;61163;-79
2023/05/10 11:27:41;;;;;;;3.10;1.90;;;;;;;;;;107116;1248;61234;-79
2023/05/10 11:30:09;;;;;;;2.80;2.10;;;;;;;;;;107116;1247;61333;-78
2023/05/10 11:32:39;;;;;;;4.70;2.40;;;;;;;;;;107061;1247;61256;-79
2023/05/10 11:35:09;;;;;;;4.90;2.30;;;;;;;;;;107171;1252;61217;-77
2023/05/10 11:37:35;;;;;;;3.90;1.80;;;;;;;;;;107195;1248;61081;-79
2023/05/10 11:40:02;;;;;;;2.30;1.40;;;;;;;;;;107161;1252;61339;-77
2023/05/10 11:42:29;;;;;;;3.60;2.30;;;;;;;;;;107220;1247;61328;-77
2023/05/10 11:44:56;;;;;;;5.30;3.00;;;;;;;;;;107128;1247;61247;-77
2023/05/10 11:47:22;;;;;;;5.90;2.00;;;;;;;;;;107176;1247;61218;-79
2023/05/10 11:49:48;;;;;;;2.80;2.20;;;;;;;;;;106962;1248;61240;-77
2023/05/10 11:52:15;;;;;;;3.30;2.00;;;;;;;;;;107126;1247;61247;-79
2023/05/10 11:54:45;;;;;;;5.60;2.40;;;;;;;;;;107203;1252;61406;-80
2023/05/10 11:57:11;;;;;;;8.20;2.60;;;;;;;;;;107170;1248;61234;-79
2023/05/10 11:59:37;;;;;;;8.90;2.60;;;;;;;;;;107190;1252;61099;-77
2023/05/10 12:02:03;;;;;;;3.90;2.10;;;;;;;;;;107490;1247;61327;-77
2023/05/10 12:04:30;;;;;;;6.20;2.10;;;;;;;;;;107408;1247;61326;-80
2023/05/10 12:06:57;;;;;;;6.20;1.70;;;;;;;;;;107259;1247;61184;-80
2023/05/10 12:09:23;;;;;;;7.10;2.30;;;;;;;;;;107311;1247;61366;-79
2023/05/10 12:11:49;;;;;;;5.00;2.10;;;;;;;;;;107204;1251;61313;-80
2023/05/10 12:14:16;;;;;;;3.60;2.20;;;;;;;;;;106902;1253;61246;-78
2023/05/10 12:16:42;;;;;;;4.20;1.80;;;;;;;;;;107276;1252;61327;-78
2023/05/10 12:19:09;;;;;;;5.80;3.40;;;;;;;;;;107263;1247;61252;-79
2023/05/10 12:21:35;;;;;;;4.70;2.50;;;;;;;;;;107416;1247;61218;-77
2023/05/10 12:24:02;;;;;;;5.30;2.20;;;;;;;;;;107478;1252;61258;-79
2023/05/10 12:26:28;;;;;;;7.10;3.20;;;;;;;;;;107722;1252;61325;-80
2023/05/10 12:28:55;;;;;;;4.50;2.90;;;;;;;;;;107332;1247;61243;-80
2023/05/10 12:31:21;;;;;;;6.50;3.20;;;;;;;;;;107324;1253;61290;-80
2023/05/10 12:33:49;;;;;;;4.50;2.80;;;;;;;;;;107120;1250;61205;-77
2023/05/10 12:36:15;;;;;;;11.30;3.20;;;;;;;;;;107239;1247;61250;-79
2023/05/10 12:38:47;;;;;;;5.60;2.60;;;;;;;;;;107491;1247;61265;-80
2023/05/10 12:41:15;;;;;;;9.60;5.40;;;;;;;;;;107251;1248;61311;-77
2023/05/10 12:43:41;;;;;;;6.10;3.20;;;;;;;;;;107094;1247;61228;-79
2023/05/10 12:46:08;;;;;;;5.10;3.20;;;;;;;;;;107122;1252;61329;-79
2023/05/10 12:48:35;;;;;;;12.80;4.00;;;;;;;;;;107109;1253;61135;-77
2023/05/10 12:51:01;;;;;;;5.00;2.90;;;;;;;;;;107176;1252;61115;-78
2023/05/10 12:53:28;;;;;;;7.10;2.10;;;;;;;;;;107237;1249;61323;-77
2023/05/10 12:55:54;;;;;;;3.50;2.40;;;;;;;;;;107088;1248;61984;-79
2023/05/10 12:58:21;;;;;;;2.70;2.10;;;;;;;;;;107099;1248;61318;-79
2023/05/10 13:00:47;;;;;;;3.40;2.20;;;;;;;;;;107127;1248;61346;-78
2023/05/10 13:03:15;;;;;;;5.50;2.50;;;;;;;;;;107077;1247;61327;-76
2023/05/10 13:05:41;;;;;;;5.40;2.90;;;;;;;;;;107464;1248;61215;-79
2023/05/10 13:08:08;;;;;;;3.20;2.10;;;;;;;;;;107327;1253;61224;-77
2023/05/10 13:10:34;;;;;;;5.60;1.80;;;;;;;;;;107326;1251;61193;-79
2023/05/10 13:13:00;;;;;;;4.30;2.10;;;;;;;;;;107257;1252;61346;-79
2023/05/10 13:15:27;;;;;;;2.70;1.50;;;;;;;;;;107121;1252;59269;-79
2023/05/10 13:17:53;;;;;;;5.20;1.90;;;;;;;;;;107081;1249;61429;-77
2023/05/10 13:20:20;;;;;;;4.60;1.80;;;;;;;;;;107495;1251;61313;-79
2023/05/10 13:22:47;;;;;;;2.60;2.40;;;;;;;;;;107420;1248;59560;-79
2023/05/10 13:25:13;;;;;;;4.80;2.30;;;;;;;;;;107516;1247;61335;-77
2023/05/10 13:27:39;;;;;;;7.30;2.20;;;;;;;;;;107084;1251;61364;-80
2023/05/10 13:30:06;;;;;;;4.80;2.30;;;;;;;;;;107253;1247;61364;-77
2023/05/10 13:32:33;;;;;;;6.60;2.80;;;;;;;;;;108423;1252;61321;-77
2023/05/10 13:34:59;;;;;;;7.00;2.60;;;;;;;;;;107214;1248;61311;-79
2023/05/10 13:37:25;;;;;;;7.20;3.80;;;;;;;;;;107431;1248;59550;-79
2023/05/10 13:39:52;;;;;;;5.00;2.60;;;;;;;;;;107060;1248;61375;-79
2023/05/10 13:42:18;;;;;;;10.90;4.10;;;;;;;;;;107113;1248;61247;-77
2023/05/10 13:44:45;;;;;;;7.00;2.90;;;;;;;;;;107083;1248;61345;-77
2023/05/10 13:47:11;;;;;;;9.80;2.50;;;;;;;;;;107108;1252;61710;-77
2023/05/10 13:49:37;;;;;;;6.10;3.20;;;;;;;;;;107119;1247;62071;-77
2023/05/10 13:52:06;;;;;;;7.60;3.10;;;;;;;;;;107113;1251;61324;-79
2023/05/10 13:54:33;;;;;;;19.20;4.40;;;;;;;;;;107043;1250;61388;-77
2023/05/10 13:57:00;;;;;;;3.60;2.10;;;;;;;;;;107008;1248;61271;-79
2023/05/10 13:59:28;;;;;;;4.40;1.80;;;;;;;;;;106915;1248;142513;-79
2023/05/10 14:01:54;;;;;;;3.40;2.70;;;;;;;;;;108038;1247;61215;-78
2023/05/10 14:04:21;;;;;;;5.70;2.50;;;;;;;;;;109472;1248;61327;-80
2023/05/10 14:06:47;;;;;;;4.00;1.50;;;;;;;;;;107114;1247;61336;-77
2023/05/10 14:09:14;;;;;;;4.20;2.50;;;;;;;;;;106991;1247;61240;-77
2023/05/10 14:11:42;;;;;;;6.90;2.70;;;;;;;;;;107177;1250;61761;-77
2023/05/10 14:14:09;;;;;;;;;;;;;;;;;;107028;1247;61138;-79
2023/05/10 14:16:35;;;;;;;4.00;2.90;;;;;;;;;;106984;1248;61995;-77
2023/05/10 14:19:02;;;;;;;3.30;2.30;;;;;;;;;;107015;1251;61215;-79
2023/05/10 14:21:31;;;;;;;8.30;4.40;;;;;;;;;;107034;1248;61275;-77